sensor_id;sensor_type;location;lat;lon;timestamp;P1;durP1;ratioP1;P2;durP2;ratioP2
22967;SDS011;11650;48.106;-1.696;2022-10-14T00:00:14;8.73;;;6.53;;
22967;SDS011;11650;48.106;-1.696;2022-10-14T00:02:40;9.00;;;6.07;;
22967;SDS011;11650;48.106;-1.696;2022-10-14T00:05:06;13.23;;;6.57;;
22967;SDS011;11650;48.106;-1.696;2022-10-14T00:07:33;10.13;;;6.33;;
22967;SDS011;11650;48.106;-1.696;2022-10-14T00:09:58;9.43;;;6.20;;
22967;SDS011;11650;48.106;-1.696;2022-10-14T00:12:24;9.17;;;6.47;;
22967;SDS011;11650;48.106;-1.696;2022-10-14T00:14:50;8.10;;;6.37;;
22967;SDS011;11650;48.106;-1.696;2022-10-14T00:17:15;10.30;;;6.67;;
22967;SDS011;11650;48.106;-1.696;2022-10-14T00:19:41;9.03;;;6.00;;
22967;SDS011;11650;48.106;-1.696;2022-10-14T00:22:06;9.87;;;6.17;;
22967;SDS011;11650;48.106;-1.696;2022-10-14T00:24:32;9.90;;;6.87;;
22967;SDS011;11650;48.106;-1.696;2022-10-14T00:26:58;12.30;;;7.03;;
22967;SDS011;11650;48.106;-1.696;2022-10-14T00:29:26;10.37;;;7.03;;
22967;SDS011;11650;48.106;-1.696;2022-10-14T00:31:52;10.00;;;6.50;;
22967;SDS011;11650;48.106;-1.696;2022-10-14T00:34:17;12.27;;;7.20;;
22967;SDS011;11650;48.106;-1.696;2022-10-14T00:36:43;11.97;;;6.80;;
22967;SDS011;11650;48.106;-1.696;2022-10-14T00:39:09;10.20;;;7.00;;
22967;SDS011;11650;48.106;-1.696;2022-10-14T00:41:35;13.13;;;6.77;;
22967;SDS011;11650;48.106;-1.696;2022-10-14T00:46:45;8.90;;;6.50;;
22967;SDS011;11650;48.106;-1.696;2022-10-14T00:49:16;10.93;;;6.83;;
22967;SDS011;11650;48.106;-1.696;2022-10-14T00:51:44;10.80;;;6.70;;
22967;SDS011;11650;48.106;-1.696;2022-10-14T00:54:33;8.10;;;6.00;;
22967;SDS011;11650;48.106;-1.696;2022-10-14T00:57:01;9.50;;;6.47;;
22967;SDS011;11650;48.106;-1.696;2022-10-14T00:59:28;11.23;;;7.13;;
22967;SDS011;11650;48.106;-1.696;2022-10-14T01:01:54;9.20;;;6.73;;
22967;SDS011;11650;48.106;-1.696;2022-10-14T01:04:20;10.00;;;6.93;;
22967;SDS011;11650;48.106;-1.696;2022-10-14T01:16:56;10.83;;;7.10;;
22967;SDS011;11650;48.106;-1.696;2022-10-14T01:22:44;10.33;;;6.70;;
22967;SDS011;11650;48.106;-1.696;2022-10-14T01:25:30;10.57;;;7.20;;
22967;SDS011;11650;48.106;-1.696;2022-10-14T01:30:55;12.87;;;6.63;;
22967;SDS011;11650;48.106;-1.696;2022-10-14T01:33:26;11.07;;;6.37;;
22967;SDS011;11650;48.106;-1.696;2022-10-14T01:38:52;12.67;;;7.10;;
22967;SDS011;11650;48.106;-1.696;2022-10-14T01:41:32;9.63;;;6.43;;
22967;SDS011;11650;48.106;-1.696;2022-10-14T01:44:03;12.23;;;6.97;;
22967;SDS011;11650;48.106;-1.696;2022-10-14T01:46:32;9.83;;;6.37;;
22967;SDS011;11650;48.106;-1.696;2022-10-14T01:49:07;13.67;;;6.63;;
22967;SDS011;11650;48.106;-1.696;2022-10-14T01:51:41;9.73;;;6.83;;
22967;SDS011;11650;48.106;-1.696;2022-10-14T01:54:14;10.13;;;7.03;;
22967;SDS011;11650;48.106;-1.696;2022-10-14T01:56:47;13.07;;;7.00;;
22967;SDS011;11650;48.106;-1.696;2022-10-14T01:59:13;14.43;;;6.70;;
22967;SDS011;11650;48.106;-1.696;2022-10-14T02:01:42;10.57;;;6.63;;
22967;SDS011;11650;48.106;-1.696;2022-10-14T02:04:13;13.30;;;6.70;;
22967;SDS011;11650;48.106;-1.696;2022-10-14T02:06:50;10.67;;;6.50;;
22967;SDS011;11650;48.106;-1.696;2022-10-14T02:20:23;11.20;;;7.20;;
22967;SDS011;11650;48.106;-1.696;2022-10-14T02:23:14;15.50;;;7.83;;
22967;SDS011;11650;48.106;-1.696;2022-10-14T02:25:47;11.73;;;7.37;;
22967;SDS011;11650;48.106;-1.696;2022-10-14T02:28:15;16.37;;;8.00;;
22967;SDS011;11650;48.106;-1.696;2022-10-14T02:30:46;12.93;;;7.37;;
22967;SDS011;11650;48.106;-1.696;2022-10-14T02:33:19;14.30;;;8.33;;
22967;SDS011;11650;48.106;-1.696;2022-10-14T02:35:48;10.57;;;7.27;;
22967;SDS011;11650;48.106;-1.696;2022-10-14T02:38:16;13.97;;;8.30;;
22967;SDS011;11650;48.106;-1.696;2022-10-14T02:40:44;14.80;;;8.10;;
22967;SDS011;11650;48.106;-1.696;2022-10-14T02:43:13;13.43;;;8.10;;
22967;SDS011;11650;48.106;-1.696;2022-10-14T02:45:39;12.00;;;7.87;;
22967;SDS011;11650;48.106;-1.696;2022-10-14T02:48:07;14.27;;;8.63;;
22967;SDS011;11650;48.106;-1.696;2022-10-14T02:50:33;13.30;;;9.13;;
22967;SDS011;11650;48.106;-1.696;2022-10-14T02:52:59;13.20;;;8.37;;
22967;SDS011;11650;48.106;-1.696;2022-10-14T02:55:24;15.73;;;9.40;;
22967;SDS011;11650;48.106;-1.696;2022-10-14T02:57:50;15.33;;;8.37;;
22967;SDS011;11650;48.106;-1.696;2022-10-14T03:00:16;11.90;;;6.67;;
22967;SDS011;11650;48.106;-1.696;2022-10-14T03:02:42;11.33;;;6.93;;
22967;SDS011;11650;48.106;-1.696;2022-10-14T03:05:08;10.67;;;6.60;;
22967;SDS011;11650;48.106;-1.696;2022-10-14T03:07:34;10.30;;;6.77;;
22967;SDS011;11650;48.106;-1.696;2022-10-14T03:09:59;10.77;;;7.17;;
22967;SDS011;11650;48.106;-1.696;2022-10-14T03:12:26;11.57;;;6.67;;
22967;SDS011;11650;48.106;-1.696;2022-10-14T03:14:52;9.10;;;6.70;;
22967;SDS011;11650;48.106;-1.696;2022-10-14T03:17:18;8.93;;;6.10;;
22967;SDS011;11650;48.106;-1.696;2022-10-14T03:19:44;11.67;;;6.23;;
22967;SDS011;11650;48.106;-1.696;2022-10-14T03:22:10;12.53;;;6.40;;
22967;SDS011;11650;48.106;-1.696;2022-10-14T03:24:35;7.90;;;6.30;;
22967;SDS011;11650;48.106;-1.696;2022-10-14T03:27:01;9.73;;;5.97;;
22967;SDS011;11650;48.106;-1.696;2022-10-14T03:29:26;10.27;;;6.37;;
22967;SDS011;11650;48.106;-1.696;2022-10-14T03:31:52;9.60;;;6.13;;
22967;SDS011;11650;48.106;-1.696;2022-10-14T03:34:18;11.00;;;6.60;;
22967;SDS011;11650;48.106;-1.696;2022-10-14T03:36:44;10.07;;;6.77;;
22967;SDS011;11650;48.106;-1.696;2022-10-14T03:39:10;10.60;;;7.10;;
22967;SDS011;11650;48.106;-1.696;2022-10-14T03:41:36;10.23;;;6.37;;
22967;SDS011;11650;48.106;-1.696;2022-10-14T03:44:02;9.47;;;7.40;;
22967;SDS011;11650;48.106;-1.696;2022-10-14T03:46:28;10.40;;;6.80;;
22967;SDS011;11650;48.106;-1.696;2022-10-14T03:48:53;13.77;;;7.17;;
22967;SDS011;11650;48.106;-1.696;2022-10-14T03:51:19;9.20;;;6.43;;
22967;SDS011;11650;48.106;-1.696;2022-10-14T03:53:45;11.90;;;6.57;;
22967;SDS011;11650;48.106;-1.696;2022-10-14T03:56:11;11.37;;;7.03;;
22967;SDS011;11650;48.106;-1.696;2022-10-14T03:58:36;9.47;;;6.87;;
22967;SDS011;11650;48.106;-1.696;2022-10-14T04:01:02;7.43;;;5.10;;
22967;SDS011;11650;48.106;-1.696;2022-10-14T04:03:28;8.80;;;5.87;;
22967;SDS011;11650;48.106;-1.696;2022-10-14T04:05:54;7.13;;;5.00;;
22967;SDS011;11650;48.106;-1.696;2022-10-14T04:08:20;11.17;;;6.17;;
22967;SDS011;11650;48.106;-1.696;2022-10-14T04:10:50;10.57;;;5.37;;
22967;SDS011;11650;48.106;-1.696;2022-10-14T04:13:19;6.37;;;3.07;;
22967;SDS011;11650;48.106;-1.696;2022-10-14T04:15:45;7.97;;;3.57;;
22967;SDS011;11650;48.106;-1.696;2022-10-14T04:18:11;5.27;;;3.50;;
22967;SDS011;11650;48.106;-1.696;2022-10-14T04:20:36;4.87;;;3.60;;
22967;SDS011;11650;48.106;-1.696;2022-10-14T04:23:02;6.03;;;3.27;;
22967;SDS011;11650;48.106;-1.696;2022-10-14T04:25:28;7.30;;;3.40;;
22967;SDS011;11650;48.106;-1.696;2022-10-14T04:27:54;6.57;;;3.43;;
22967;SDS011;11650;48.106;-1.696;2022-10-14T04:30:19;5.77;;;3.10;;
22967;SDS011;11650;48.106;-1.696;2022-10-14T04:32:45;7.07;;;3.23;;
22967;SDS011;11650;48.106;-1.696;2022-10-14T04:35:11;6.03;;;3.47;;
22967;SDS011;11650;48.106;-1.696;2022-10-14T04:37:36;4.30;;;3.10;;
22967;SDS011;11650;48.106;-1.696;2022-10-14T04:40:02;5.70;;;3.20;;
22967;SDS011;11650;48.106;-1.696;2022-10-14T04:42:28;6.57;;;3.23;;
22967;SDS011;11650;48.106;-1.696;2022-10-14T04:44:54;4.37;;;3.03;;
22967;SDS011;11650;48.106;-1.696;2022-10-14T04:47:20;4.93;;;3.47;;
22967;SDS011;11650;48.106;-1.696;2022-10-14T04:49:45;4.87;;;3.40;;
22967;SDS011;11650;48.106;-1.696;2022-10-14T04:52:11;6.50;;;3.90;;
22967;SDS011;11650;48.106;-1.696;2022-10-14T04:54:36;6.80;;;4.13;;
22967;SDS011;11650;48.106;-1.696;2022-10-14T04:57:02;9.03;;;5.53;;
22967;SDS011;11650;48.106;-1.696;2022-10-14T04:59:28;8.83;;;5.80;;
22967;SDS011;11650;48.106;-1.696;2022-10-14T05:01:53;8.93;;;6.50;;
22967;SDS011;11650;48.106;-1.696;2022-10-14T05:04:19;10.07;;;6.17;;
22967;SDS011;11650;48.106;-1.696;2022-10-14T05:06:45;12.60;;;6.80;;
22967;SDS011;11650;48.106;-1.696;2022-10-14T05:09:10;12.30;;;7.13;;
22967;SDS011;11650;48.106;-1.696;2022-10-14T05:11:36;11.53;;;7.90;;
22967;SDS011;11650;48.106;-1.696;2022-10-14T05:14:02;12.27;;;8.00;;
22967;SDS011;11650;48.106;-1.696;2022-10-14T05:16:27;13.10;;;8.13;;
22967;SDS011;11650;48.106;-1.696;2022-10-14T05:18:53;14.20;;;8.60;;
22967;SDS011;11650;48.106;-1.696;2022-10-14T05:21:19;13.87;;;9.40;;
22967;SDS011;11650;48.106;-1.696;2022-10-14T05:23:44;12.83;;;8.83;;
22967;SDS011;11650;48.106;-1.696;2022-10-14T05:26:10;12.23;;;7.80;;
22967;SDS011;11650;48.106;-1.696;2022-10-14T05:28:36;13.57;;;8.87;;
22967;SDS011;11650;48.106;-1.696;2022-10-14T05:31:04;14.57;;;9.33;;
22967;SDS011;11650;48.106;-1.696;2022-10-14T05:33:30;14.20;;;9.20;;
22967;SDS011;11650;48.106;-1.696;2022-10-14T05:35:56;16.67;;;9.50;;
22967;SDS011;11650;48.106;-1.696;2022-10-14T05:38:22;15.87;;;10.30;;
22967;SDS011;11650;48.106;-1.696;2022-10-14T05:40:51;11.63;;;8.50;;
22967;SDS011;11650;48.106;-1.696;2022-10-14T05:43:18;14.37;;;7.80;;
22967;SDS011;11650;48.106;-1.696;2022-10-14T05:45:44;9.63;;;6.20;;
22967;SDS011;11650;48.106;-1.696;2022-10-14T05:48:09;8.47;;;5.73;;
22967;SDS011;11650;48.106;-1.696;2022-10-14T05:50:35;10.67;;;7.03;;
22967;SDS011;11650;48.106;-1.696;2022-10-14T05:53:00;10.37;;;6.57;;
22967;SDS011;11650;48.106;-1.696;2022-10-14T05:55:26;10.73;;;6.30;;
22967;SDS011;11650;48.106;-1.696;2022-10-14T05:57:55;10.27;;;6.70;;
22967;SDS011;11650;48.106;-1.696;2022-10-14T06:00:21;10.27;;;6.57;;
22967;SDS011;11650;48.106;-1.696;2022-10-14T06:02:47;9.90;;;7.03;;
22967;SDS011;11650;48.106;-1.696;2022-10-14T06:05:12;9.10;;;5.53;;
22967;SDS011;11650;48.106;-1.696;2022-10-14T06:07:38;7.80;;;5.67;;
22967;SDS011;11650;48.106;-1.696;2022-10-14T06:10:04;7.50;;;5.87;;
22967;SDS011;11650;48.106;-1.696;2022-10-14T06:12:30;10.20;;;6.20;;
22967;SDS011;11650;48.106;-1.696;2022-10-14T06:14:56;9.50;;;6.70;;
22967;SDS011;11650;48.106;-1.696;2022-10-14T06:17:22;11.93;;;6.77;;
22967;SDS011;11650;48.106;-1.696;2022-10-14T06:19:47;9.90;;;5.80;;
22967;SDS011;11650;48.106;-1.696;2022-10-14T06:22:13;10.00;;;6.40;;
22967;SDS011;11650;48.106;-1.696;2022-10-14T06:24:39;9.60;;;5.73;;
22967;SDS011;11650;48.106;-1.696;2022-10-14T06:27:04;9.23;;;5.63;;
22967;SDS011;11650;48.106;-1.696;2022-10-14T06:29:30;10.00;;;6.60;;
22967;SDS011;11650;48.106;-1.696;2022-10-14T06:32:02;9.50;;;6.70;;
22967;SDS011;11650;48.106;-1.696;2022-10-14T06:34:28;6.47;;;5.40;;
22967;SDS011;11650;48.106;-1.696;2022-10-14T06:36:54;9.97;;;6.10;;
22967;SDS011;11650;48.106;-1.696;2022-10-14T06:39:19;9.17;;;5.87;;
22967;SDS011;11650;48.106;-1.696;2022-10-14T06:41:45;13.83;;;7.10;;
22967;SDS011;11650;48.106;-1.696;2022-10-14T06:44:11;11.03;;;5.77;;
22967;SDS011;11650;48.106;-1.696;2022-10-14T06:46:37;6.43;;;5.77;;
22967;SDS011;11650;48.106;-1.696;2022-10-14T06:49:03;8.17;;;6.47;;
22967;SDS011;11650;48.106;-1.696;2022-10-14T06:51:28;12.10;;;6.77;;
22967;SDS011;11650;48.106;-1.696;2022-10-14T06:53:54;7.47;;;5.80;;
22967;SDS011;11650;48.106;-1.696;2022-10-14T06:56:20;9.00;;;6.50;;
22967;SDS011;11650;48.106;-1.696;2022-10-14T06:58:45;8.77;;;5.70;;
22967;SDS011;11650;48.106;-1.696;2022-10-14T07:01:11;9.87;;;5.90;;
22967;SDS011;11650;48.106;-1.696;2022-10-14T07:03:36;9.40;;;6.23;;
22967;SDS011;11650;48.106;-1.696;2022-10-14T07:06:03;9.17;;;6.00;;
22967;SDS011;11650;48.106;-1.696;2022-10-14T07:08:30;8.33;;;5.80;;
22967;SDS011;11650;48.106;-1.696;2022-10-14T07:10:56;9.37;;;6.20;;
22967;SDS011;11650;48.106;-1.696;2022-10-14T07:13:22;7.60;;;5.83;;
22967;SDS011;11650;48.106;-1.696;2022-10-14T07:15:48;8.97;;;5.83;;
22967;SDS011;11650;48.106;-1.696;2022-10-14T07:18:14;7.17;;;5.60;;
22967;SDS011;11650;48.106;-1.696;2022-10-14T07:20:39;7.53;;;5.87;;
22967;SDS011;11650;48.106;-1.696;2022-10-14T07:23:05;6.33;;;5.30;;
22967;SDS011;11650;48.106;-1.696;2022-10-14T07:25:31;7.90;;;5.33;;
22967;SDS011;11650;48.106;-1.696;2022-10-14T07:27:57;7.53;;;5.23;;
22967;SDS011;11650;48.106;-1.696;2022-10-14T07:30:23;8.33;;;5.70;;
22967;SDS011;11650;48.106;-1.696;2022-10-14T07:32:49;8.57;;;5.50;;
22967;SDS011;11650;48.106;-1.696;2022-10-14T07:35:15;7.87;;;4.70;;
22967;SDS011;11650;48.106;-1.696;2022-10-14T07:37:42;5.33;;;4.70;;
22967;SDS011;11650;48.106;-1.696;2022-10-14T07:40:09;6.30;;;4.63;;
22967;SDS011;11650;48.106;-1.696;2022-10-14T07:42:35;6.13;;;4.27;;
22967;SDS011;11650;48.106;-1.696;2022-10-14T07:45:01;4.33;;;3.83;;
22967;SDS011;11650;48.106;-1.696;2022-10-14T07:47:27;5.83;;;4.33;;
22967;SDS011;11650;48.106;-1.696;2022-10-14T07:49:53;4.97;;;3.33;;
22967;SDS011;11650;48.106;-1.696;2022-10-14T07:52:18;4.77;;;3.80;;
22967;SDS011;11650;48.106;-1.696;2022-10-14T07:54:44;5.50;;;3.57;;
22967;SDS011;11650;48.106;-1.696;2022-10-14T07:57:10;5.70;;;4.07;;
22967;SDS011;11650;48.106;-1.696;2022-10-14T07:59:36;4.53;;;3.20;;
22967;SDS011;11650;48.106;-1.696;2022-10-14T08:02:02;4.03;;;3.00;;
22967;SDS011;11650;48.106;-1.696;2022-10-14T08:04:28;5.53;;;3.17;;
22967;SDS011;11650;48.106;-1.696;2022-10-14T08:06:54;5.17;;;3.37;;
22967;SDS011;11650;48.106;-1.696;2022-10-14T08:09:20;4.73;;;3.20;;
22967;SDS011;11650;48.106;-1.696;2022-10-14T08:11:46;5.37;;;3.73;;
22967;SDS011;11650;48.106;-1.696;2022-10-14T08:14:12;5.60;;;3.80;;
22967;SDS011;11650;48.106;-1.696;2022-10-14T08:16:38;5.83;;;3.60;;
22967;SDS011;11650;48.106;-1.696;2022-10-14T08:19:05;5.73;;;3.83;;
22967;SDS011;11650;48.106;-1.696;2022-10-14T08:21:33;5.00;;;4.40;;
22967;SDS011;11650;48.106;-1.696;2022-10-14T08:23:59;5.07;;;3.60;;
22967;SDS011;11650;48.106;-1.696;2022-10-14T08:29:01;5.07;;;4.07;;
22967;SDS011;11650;48.106;-1.696;2022-10-14T08:31:31;4.47;;;3.80;;
22967;SDS011;11650;48.106;-1.696;2022-10-14T08:33:58;7.50;;;5.13;;
22967;SDS011;11650;48.106;-1.696;2022-10-14T08:36:23;7.40;;;5.13;;
22967;SDS011;11650;48.106;-1.696;2022-10-14T08:38:50;6.80;;;4.23;;
22967;SDS011;11650;48.106;-1.696;2022-10-14T08:44:00;6.73;;;4.30;;
22967;SDS011;11650;48.106;-1.696;2022-10-14T08:46:46;7.27;;;3.47;;
22967;SDS011;11650;48.106;-1.696;2022-10-14T08:49:19;3.80;;;2.90;;
22967;SDS011;11650;48.106;-1.696;2022-10-14T08:51:59;7.37;;;3.10;;
22967;SDS011;11650;48.106;-1.696;2022-10-14T08:54:31;5.60;;;3.20;;
22967;SDS011;11650;48.106;-1.696;2022-10-14T08:57:02;3.40;;;2.57;;
22967;SDS011;11650;48.106;-1.696;2022-10-14T08:59:30;3.87;;;2.90;;
22967;SDS011;11650;48.106;-1.696;2022-10-14T09:02:03;4.60;;;2.70;;
22967;SDS011;11650;48.106;-1.696;2022-10-14T09:04:38;4.43;;;2.80;;
22967;SDS011;11650;48.106;-1.696;2022-10-14T09:07:04;3.90;;;3.10;;
22967;SDS011;11650;48.106;-1.696;2022-10-14T09:09:37;3.87;;;2.83;;
22967;SDS011;11650;48.106;-1.696;2022-10-14T09:12:08;4.07;;;2.73;;
22967;SDS011;11650;48.106;-1.696;2022-10-14T09:14:45;4.27;;;2.97;;
22967;SDS011;11650;48.106;-1.696;2022-10-14T09:17:22;4.80;;;2.87;;
22967;SDS011;11650;48.106;-1.696;2022-10-14T09:20:14;4.87;;;3.00;;
22967;SDS011;11650;48.106;-1.696;2022-10-14T09:22:40;5.33;;;2.83;;
22967;SDS011;11650;48.106;-1.696;2022-10-14T09:25:15;6.37;;;3.10;;
22967;SDS011;11650;48.106;-1.696;2022-10-14T09:27:41;3.50;;;2.67;;
22967;SDS011;11650;48.106;-1.696;2022-10-14T09:30:08;6.23;;;2.57;;
22967;SDS011;11650;48.106;-1.696;2022-10-14T09:32:40;9.83;;;3.10;;
22967;SDS011;11650;48.106;-1.696;2022-10-14T09:35:12;7.40;;;2.67;;
22967;SDS011;11650;48.106;-1.696;2022-10-14T09:37:42;6.27;;;3.10;;
22967;SDS011;11650;48.106;-1.696;2022-10-14T09:42:50;3.97;;;2.13;;
22967;SDS011;11650;48.106;-1.696;2022-10-14T09:45:24;5.60;;;2.10;;
22967;SDS011;11650;48.106;-1.696;2022-10-14T09:47:52;6.13;;;1.90;;
22967;SDS011;11650;48.106;-1.696;2022-10-14T09:52:54;5.43;;;2.10;;
22967;SDS011;11650;48.106;-1.696;2022-10-14T09:55:25;4.37;;;1.67;;
22967;SDS011;11650;48.106;-1.696;2022-10-14T09:57:57;6.63;;;2.00;;
22967;SDS011;11650;48.106;-1.696;2022-10-14T10:00:29;5.50;;;1.37;;
22967;SDS011;11650;48.106;-1.696;2022-10-14T10:02:56;5.67;;;1.70;;
22967;SDS011;11650;48.106;-1.696;2022-10-14T10:05:23;8.17;;;1.57;;
22967;SDS011;11650;48.106;-1.696;2022-10-14T10:10:27;6.47;;;1.70;;
22967;SDS011;11650;48.106;-1.696;2022-10-14T10:12:54;6.07;;;1.60;;
22967;SDS011;11650;48.106;-1.696;2022-10-14T10:15:21;6.50;;;1.70;;
22967;SDS011;11650;48.106;-1.696;2022-10-14T10:17:47;6.10;;;2.00;;
22967;SDS011;11650;48.106;-1.696;2022-10-14T10:22:42;4.90;;;1.70;;
22967;SDS011;11650;48.106;-1.696;2022-10-14T10:27:36;4.63;;;1.53;;
22967;SDS011;11650;48.106;-1.696;2022-10-14T10:38:57;6.37;;;1.80;;
22967;SDS011;11650;48.106;-1.696;2022-10-14T10:46:54;5.00;;;1.40;;
22967;SDS011;11650;48.106;-1.696;2022-10-14T11:01:02;6.00;;;1.87;;
22967;SDS011;11650;48.106;-1.696;2022-10-14T11:06:41;7.77;;;1.67;;
22967;SDS011;11650;48.106;-1.696;2022-10-14T11:13:03;4.60;;;1.30;;
22967;SDS011;11650;48.106;-1.696;2022-10-14T11:18:41;3.47;;;1.00;;
22967;SDS011;11650;48.106;-1.696;2022-10-14T11:21:23;4.43;;;1.17;;
22967;SDS011;11650;48.106;-1.696;2022-10-14T11:32:07;5.10;;;1.77;;
22967;SDS011;11650;48.106;-1.696;2022-10-14T11:34:57;7.43;;;1.63;;
22967;SDS011;11650;48.106;-1.696;2022-10-14T11:40:23;5.73;;;1.93;;
22967;SDS011;11650;48.106;-1.696;2022-10-14T11:48:16;5.57;;;2.00;;
22967;SDS011;11650;48.106;-1.696;2022-10-14T11:50:58;6.07;;;1.60;;
22967;SDS011;11650;48.106;-1.696;2022-10-14T11:56:58;5.17;;;1.10;;
22967;SDS011;11650;48.106;-1.696;2022-10-14T12:04:52;3.77;;;1.30;;
22967;SDS011;11650;48.106;-1.696;2022-10-14T12:07:30;5.37;;;1.07;;
22967;SDS011;11650;48.106;-1.696;2022-10-14T12:10:01;3.60;;;0.90;;
22967;SDS011;11650;48.106;-1.696;2022-10-14T12:12:36;5.37;;;1.17;;
22967;SDS011;11650;48.106;-1.696;2022-10-14T12:15:04;4.13;;;1.30;;
22967;SDS011;11650;48.106;-1.696;2022-10-14T12:17:35;4.50;;;1.10;;
22967;SDS011;11650;48.106;-1.696;2022-10-14T12:20:54;5.87;;;1.00;;
22967;SDS011;11650;48.106;-1.696;2022-10-14T12:26:09;2.47;;;0.90;;
22967;SDS011;11650;48.106;-1.696;2022-10-14T12:28:49;3.87;;;1.00;;
22967;SDS011;11650;48.106;-1.696;2022-10-14T12:31:36;4.10;;;1.00;;
22967;SDS011;11650;48.106;-1.696;2022-10-14T12:36:35;3.20;;;0.80;;
22967;SDS011;11650;48.106;-1.696;2022-10-14T12:41:51;3.97;;;1.20;;
22967;SDS011;11650;48.106;-1.696;2022-10-14T12:44:19;2.53;;;1.00;;
22967;SDS011;11650;48.106;-1.696;2022-10-14T12:46:48;2.40;;;0.80;;
22967;SDS011;11650;48.106;-1.696;2022-10-14T12:49:36;2.20;;;0.87;;
22967;SDS011;11650;48.106;-1.696;2022-10-14T12:52:02;1.77;;;1.03;;
22967;SDS011;11650;48.106;-1.696;2022-10-14T12:54:30;3.57;;;0.90;;
22967;SDS011;11650;48.106;-1.696;2022-10-14T12:57:01;4.50;;;1.20;;
22967;SDS011;11650;48.106;-1.696;2022-10-14T12:59:43;5.33;;;1.20;;
22967;SDS011;11650;48.106;-1.696;2022-10-14T13:02:17;2.83;;;1.30;;
22967;SDS011;11650;48.106;-1.696;2022-10-14T13:04:56;3.87;;;1.13;;
22967;SDS011;11650;48.106;-1.696;2022-10-14T13:07:43;5.80;;;1.20;;
22967;SDS011;11650;48.106;-1.696;2022-10-14T13:13:01;3.57;;;1.40;;
22967;SDS011;11650;48.106;-1.696;2022-10-14T13:21:28;3.87;;;1.40;;
22967;SDS011;11650;48.106;-1.696;2022-10-14T13:24:00;2.87;;;1.50;;
22967;SDS011;11650;48.106;-1.696;2022-10-14T13:26:33;3.83;;;1.20;;
22967;SDS011;11650;48.106;-1.696;2022-10-14T13:39:51;7.63;;;1.67;;
22967;SDS011;11650;48.106;-1.696;2022-10-14T13:42:22;3.00;;;1.60;;
22967;SDS011;11650;48.106;-1.696;2022-10-14T13:44:57;5.37;;;1.70;;
22967;SDS011;11650;48.106;-1.696;2022-10-14T13:47:30;5.03;;;1.73;;
22967;SDS011;11650;48.106;-1.696;2022-10-14T13:49:58;2.77;;;1.43;;
22967;SDS011;11650;48.106;-1.696;2022-10-14T13:52:25;4.87;;;1.60;;
22967;SDS011;11650;48.106;-1.696;2022-10-14T13:57:42;5.60;;;1.90;;
22967;SDS011;11650;48.106;-1.696;2022-10-14T14:03:52;3.40;;;1.70;;
22967;SDS011;11650;48.106;-1.696;2022-10-14T14:06:23;5.57;;;1.90;;
22967;SDS011;11650;48.106;-1.696;2022-10-14T14:09:13;3.17;;;1.63;;
22967;SDS011;11650;48.106;-1.696;2022-10-14T14:11:44;2.90;;;1.30;;
22967;SDS011;11650;48.106;-1.696;2022-10-14T14:14:21;3.17;;;1.30;;
22967;SDS011;11650;48.106;-1.696;2022-10-14T14:17:02;3.90;;;1.50;;
22967;SDS011;11650;48.106;-1.696;2022-10-14T14:19:34;2.63;;;1.37;;
22967;SDS011;11650;48.106;-1.696;2022-10-14T14:22:13;6.73;;;1.73;;
22967;SDS011;11650;48.106;-1.696;2022-10-14T14:24:40;2.47;;;1.30;;
22967;SDS011;11650;48.106;-1.696;2022-10-14T14:27:13;3.53;;;1.50;;
22967;SDS011;11650;48.106;-1.696;2022-10-14T14:29:45;3.77;;;1.40;;
22967;SDS011;11650;48.106;-1.696;2022-10-14T14:32:14;4.50;;;1.40;;
22967;SDS011;11650;48.106;-1.696;2022-10-14T14:34:43;2.97;;;1.23;;
22967;SDS011;11650;48.106;-1.696;2022-10-14T14:37:19;4.63;;;1.40;;
22967;SDS011;11650;48.106;-1.696;2022-10-14T14:40:01;3.33;;;1.30;;
22967;SDS011;11650;48.106;-1.696;2022-10-14T14:42:31;3.20;;;1.23;;
22967;SDS011;11650;48.106;-1.696;2022-10-14T14:45:02;5.00;;;1.97;;
22967;SDS011;11650;48.106;-1.696;2022-10-14T14:47:31;4.37;;;1.60;;
22967;SDS011;11650;48.106;-1.696;2022-10-14T14:49:57;5.07;;;1.70;;
22967;SDS011;11650;48.106;-1.696;2022-10-14T14:52:24;5.00;;;1.40;;
22967;SDS011;11650;48.106;-1.696;2022-10-14T14:54:52;2.57;;;1.23;;
22967;SDS011;11650;48.106;-1.696;2022-10-14T14:57:18;3.67;;;1.47;;
22967;SDS011;11650;48.106;-1.696;2022-10-14T14:59:50;4.67;;;1.47;;
22967;SDS011;11650;48.106;-1.696;2022-10-14T15:02:26;6.97;;;4.10;;
22967;SDS011;11650;48.106;-1.696;2022-10-14T15:05:00;3.17;;;1.67;;
22967;SDS011;11650;48.106;-1.696;2022-10-14T15:07:31;2.47;;;1.70;;
22967;SDS011;11650;48.106;-1.696;2022-10-14T15:09:58;4.80;;;1.60;;
22967;SDS011;11650;48.106;-1.696;2022-10-14T15:12:36;3.73;;;1.83;;
22967;SDS011;11650;48.106;-1.696;2022-10-14T15:15:24;5.53;;;2.20;;
22967;SDS011;11650;48.106;-1.696;2022-10-14T15:20:35;5.37;;;2.23;;
22967;SDS011;11650;48.106;-1.696;2022-10-14T15:23:25;3.90;;;1.60;;
22967;SDS011;11650;48.106;-1.696;2022-10-14T15:26:02;2.53;;;1.70;;
22967;SDS011;11650;48.106;-1.696;2022-10-14T15:28:31;2.43;;;1.30;;
22967;SDS011;11650;48.106;-1.696;2022-10-14T15:30:57;2.47;;;1.17;;
22967;SDS011;11650;48.106;-1.696;2022-10-14T15:33:23;4.90;;;1.20;;
22967;SDS011;11650;48.106;-1.696;2022-10-14T15:35:54;4.27;;;1.00;;
22967;SDS011;11650;48.106;-1.696;2022-10-14T15:38:22;1.63;;;1.00;;
22967;SDS011;11650;48.106;-1.696;2022-10-14T15:40:50;3.13;;;1.00;;
22967;SDS011;11650;48.106;-1.696;2022-10-14T15:43:19;3.60;;;0.93;;
22967;SDS011;11650;48.106;-1.696;2022-10-14T15:45:52;2.63;;;1.13;;
22967;SDS011;11650;48.106;-1.696;2022-10-14T15:48:38;1.70;;;1.17;;
22967;SDS011;11650;48.106;-1.696;2022-10-14T15:51:13;5.70;;;1.60;;
22967;SDS011;11650;48.106;-1.696;2022-10-14T15:53:40;5.50;;;1.50;;
22967;SDS011;11650;48.106;-1.696;2022-10-14T15:56:06;3.20;;;1.40;;
22967;SDS011;11650;48.106;-1.696;2022-10-14T15:58:34;2.67;;;1.23;;
22967;SDS011;11650;48.106;-1.696;2022-10-14T16:01:00;2.03;;;1.53;;
22967;SDS011;11650;48.106;-1.696;2022-10-14T16:03:27;3.30;;;1.57;;
22967;SDS011;11650;48.106;-1.696;2022-10-14T16:05:52;3.47;;;1.87;;
22967;SDS011;11650;48.106;-1.696;2022-10-14T16:08:18;4.27;;;2.13;;
22967;SDS011;11650;48.106;-1.696;2022-10-14T16:10:44;4.10;;;1.67;;
22967;SDS011;11650;48.106;-1.696;2022-10-14T16:13:11;7.00;;;4.07;;
22967;SDS011;11650;48.106;-1.696;2022-10-14T16:15:39;1.90;;;1.50;;
22967;SDS011;11650;48.106;-1.696;2022-10-14T16:18:13;2.63;;;1.50;;
22967;SDS011;11650;48.106;-1.696;2022-10-14T16:20:39;2.80;;;1.50;;
22967;SDS011;11650;48.106;-1.696;2022-10-14T16:23:05;0.93;;;0.83;;
22967;SDS011;11650;48.106;-1.696;2022-10-14T16:25:35;1.43;;;0.77;;
22967;SDS011;11650;48.106;-1.696;2022-10-14T16:28:05;2.30;;;0.90;;
22967;SDS011;11650;48.106;-1.696;2022-10-14T16:30:32;1.10;;;0.90;;
22967;SDS011;11650;48.106;-1.696;2022-10-14T16:32:59;1.10;;;0.90;;
22967;SDS011;11650;48.106;-1.696;2022-10-14T16:35:25;3.10;;;1.07;;
22967;SDS011;11650;48.106;-1.696;2022-10-14T16:37:51;2.77;;;1.30;;
22967;SDS011;11650;48.106;-1.696;2022-10-14T16:40:17;2.97;;;2.37;;
22967;SDS011;11650;48.106;-1.696;2022-10-14T16:42:43;3.97;;;3.43;;
22967;SDS011;11650;48.106;-1.696;2022-10-14T16:45:08;4.23;;;3.00;;
22967;SDS011;11650;48.106;-1.696;2022-10-14T16:47:34;5.60;;;2.30;;
22967;SDS011;11650;48.106;-1.696;2022-10-14T16:50:00;3.90;;;2.07;;
22967;SDS011;11650;48.106;-1.696;2022-10-14T16:52:26;2.90;;;1.97;;
22967;SDS011;11650;48.106;-1.696;2022-10-14T16:54:52;5.83;;;2.50;;
22967;SDS011;11650;48.106;-1.696;2022-10-14T16:57:17;6.43;;;2.13;;
22967;SDS011;11650;48.106;-1.696;2022-10-14T16:59:43;4.20;;;2.10;;
22967;SDS011;11650;48.106;-1.696;2022-10-14T17:02:12;4.57;;;2.40;;
22967;SDS011;11650;48.106;-1.696;2022-10-14T17:04:39;3.27;;;1.60;;
22967;SDS011;11650;48.106;-1.696;2022-10-14T17:07:06;4.77;;;1.80;;
22967;SDS011;11650;48.106;-1.696;2022-10-14T17:09:35;3.47;;;1.70;;